Fresno Yosemite International Airport Fresno US
ICAO: KFAT
IATA: FAT
Category: Medium
Scheduled Services: Yes

Elevation: 336 ft
TransAlt. 18000 ft.

Airport Communications:
APP/DEP:35.195
APP/DEP:118.5
ATIS:121.35
CLNC DEL:124.35
GND:121.7
ANG OPS:138.15
ARNG OPS:40.95
RANCHO RDO:122.2
TWR:118.2
UNICOM:122.95

KFAT Zoom In..

If you have problems with the map follow the link
https://www.worldairports.se/pages/airport.php?
ICAO=KFAT

Runways:

(A) RW 11L length 9539 ft width 150 ft
LOC 111.30 / hdg 111

(B) RW 11R length 8008 ft width 150 ft
LOC 111.30 / hdg 111

(C) RW 29L length 8008 ft width 150 ft
LOC 111.30 / hdg 291

(D) RW 29R length 9539 ft width 150 ft
ILS 111.30 / hdg 291

Location; KFAT
Day. 20 / Time. 07.53 Zulu
* Altimeter: 30.10
* Temperature: 07° c. 44.6°f.
* Wind from: 270° Speed 05 kn.
Dewpoint: 06° c.
Visibility: 4 Statute Miles.
Clouds: Broken 15000 ft.
Clouds: Overcast 2000 ft.
Conditions: Mist.

KFAT 200753Z 27005KT 4SM BR BKN150 OVC200 07/06 A3010 RMK AO2 SLP192 T00720056 401000056


Wind From 270°
Speed 05 kn.

 
 
jpsmedia worldairports.se 2020   terms of use